KMZZ/MZZ METAR and TAF weather

Enter ICAO airport designator
Station Type Date Time Source
KMZZ METAR 2021/08/02 02:15 UTC NOAA

KMZZ 020215Z AUTO 00000KT 10SM CLR 15/14 A3008 RMK AO2 T01470136


Station Type Date Time Source
KMZZ Decoded METAR 2021/08/02 02:15 UTC NOAA

Station name not available
Aug 01, 2021 - 10:15 PM EDT / 2021.08.02 0215 UTC
Wind: Calm:0
Visibility: 10 mile(s):0
Sky conditions: clear
Temperature: 58.5 F (14.7 C)
Dew Point: 56.5 F (13.6 C)
Relative Humidity: 93%
Pressure (altimeter): 30.08 in. Hg (1018 hPa)
ob: KMZZ 020215Z AUTO 00000KT 10SM CLR 15/14 A3008 RMK AO2 T01470136
cycle: 2

Station Type Date Time Source
KMZZ TAF UTC NOAA

Error!

Example: see airport list